sensor_id;sensor_type;location;lat;lon;timestamp;P1;durP1;ratioP1;P2;durP2;ratioP2
13872;SDS011;7006;51.494;11.964;2023-07-02T00:01:50;4.50;;;3.90;;
13872;SDS011;7006;51.494;11.964;2023-07-02T00:04:20;4.80;;;4.30;;
13872;SDS011;7006;51.494;11.964;2023-07-02T00:06:48;5.17;;;4.60;;
13872;SDS011;7006;51.494;11.964;2023-07-02T00:09:16;4.90;;;4.40;;
13872;SDS011;7006;51.494;11.964;2023-07-02T00:11:45;5.73;;;4.80;;
13872;SDS011;7006;51.494;11.964;2023-07-02T00:14:13;6.43;;;4.93;;
13872;SDS011;7006;51.494;11.964;2023-07-02T00:16:43;4.90;;;4.50;;
13872;SDS011;7006;51.494;11.964;2023-07-02T00:19:11;7.23;;;5.00;;
13872;SDS011;7006;51.494;11.964;2023-07-02T00:21:42;5.27;;;4.77;;
13872;SDS011;7006;51.494;11.964;2023-07-02T00:24:10;7.27;;;5.40;;
13872;SDS011;7006;51.494;11.964;2023-07-02T00:26:41;5.53;;;4.60;;
13872;SDS011;7006;51.494;11.964;2023-07-02T00:29:09;7.00;;;5.03;;
13872;SDS011;7006;51.494;11.964;2023-07-02T00:31:37;6.17;;;4.80;;
13872;SDS011;7006;51.494;11.964;2023-07-02T00:34:05;8.60;;;5.33;;
13872;SDS011;7006;51.494;11.964;2023-07-02T00:36:33;5.37;;;4.87;;
13872;SDS011;7006;51.494;11.964;2023-07-02T00:39:03;5.80;;;5.20;;
13872;SDS011;7006;51.494;11.964;2023-07-02T00:41:32;9.20;;;5.53;;
13872;SDS011;7006;51.494;11.964;2023-07-02T00:44:00;7.70;;;5.77;;
13872;SDS011;7006;51.494;11.964;2023-07-02T00:46:28;6.60;;;5.43;;
13872;SDS011;7006;51.494;11.964;2023-07-02T00:48:56;5.37;;;4.87;;
13872;SDS011;7006;51.494;11.964;2023-07-02T00:51:25;6.80;;;5.80;;
13872;SDS011;7006;51.494;11.964;2023-07-02T00:53:53;6.10;;;5.50;;
13872;SDS011;7006;51.494;11.964;2023-07-02T00:56:25;6.83;;;6.20;;
13872;SDS011;7006;51.494;11.964;2023-07-02T00:58:54;7.97;;;5.90;;
13872;SDS011;7006;51.494;11.964;2023-07-02T01:01:24;6.63;;;5.50;;
13872;SDS011;7006;51.494;11.964;2023-07-02T01:03:53;8.50;;;5.87;;
13872;SDS011;7006;51.494;11.964;2023-07-02T01:06:24;9.00;;;6.30;;
13872;SDS011;7006;51.494;11.964;2023-07-02T01:08:56;6.70;;;5.97;;
13872;SDS011;7006;51.494;11.964;2023-07-02T01:11:28;6.80;;;6.10;;
13872;SDS011;7006;51.494;11.964;2023-07-02T01:13:59;6.50;;;5.00;;
13872;SDS011;7006;51.494;11.964;2023-07-02T01:16:28;7.23;;;6.07;;
13872;SDS011;7006;51.494;11.964;2023-07-02T01:18:58;7.50;;;6.03;;
13872;SDS011;7006;51.494;11.964;2023-07-02T01:21:31;7.77;;;6.57;;
13872;SDS011;7006;51.494;11.964;2023-07-02T01:24:00;6.90;;;6.20;;
13872;SDS011;7006;51.494;11.964;2023-07-02T01:26:29;7.40;;;5.90;;
13872;SDS011;7006;51.494;11.964;2023-07-02T01:28:58;7.53;;;6.13;;
13872;SDS011;7006;51.494;11.964;2023-07-02T01:31:27;9.43;;;6.40;;
13872;SDS011;7006;51.494;11.964;2023-07-02T01:33:55;7.67;;;6.90;;
13872;SDS011;7006;51.494;11.964;2023-07-02T01:36:23;8.07;;;6.33;;
13872;SDS011;7006;51.494;11.964;2023-07-02T01:38:53;11.67;;;8.57;;
13872;SDS011;7006;51.494;11.964;2023-07-02T01:41:22;9.30;;;8.40;;
13872;SDS011;7006;51.494;11.964;2023-07-02T01:43:50;6.70;;;6.10;;
13872;SDS011;7006;51.494;11.964;2023-07-02T01:46:18;7.40;;;6.27;;
13872;SDS011;7006;51.494;11.964;2023-07-02T01:48:46;6.90;;;6.13;;
13872;SDS011;7006;51.494;11.964;2023-07-02T01:51:14;6.60;;;5.90;;
13872;SDS011;7006;51.494;11.964;2023-07-02T01:53:43;8.77;;;6.27;;
13872;SDS011;7006;51.494;11.964;2023-07-02T01:56:14;8.43;;;5.63;;
13872;SDS011;7006;51.494;11.964;2023-07-02T01:58:42;5.83;;;5.23;;
13872;SDS011;7006;51.494;11.964;2023-07-02T02:01:10;6.20;;;5.50;;
13872;SDS011;7006;51.494;11.964;2023-07-02T02:03:38;8.73;;;5.10;;
13872;SDS011;7006;51.494;11.964;2023-07-02T02:06:07;5.60;;;4.77;;
13872;SDS011;7006;51.494;11.964;2023-07-02T02:08:35;4.70;;;4.30;;
13872;SDS011;7006;51.494;11.964;2023-07-02T02:11:03;5.87;;;4.10;;
13872;SDS011;7006;51.494;11.964;2023-07-02T02:13:33;5.30;;;4.80;;
13872;SDS011;7006;51.494;11.964;2023-07-02T02:16:02;5.67;;;4.70;;
13872;SDS011;7006;51.494;11.964;2023-07-02T02:18:30;5.53;;;3.90;;
13872;SDS011;7006;51.494;11.964;2023-07-02T02:20:58;5.10;;;4.60;;
13872;SDS011;7006;51.494;11.964;2023-07-02T02:23:26;4.20;;;3.80;;
13872;SDS011;7006;51.494;11.964;2023-07-02T02:25:54;5.53;;;4.40;;
13872;SDS011;7006;51.494;11.964;2023-07-02T02:28:22;4.20;;;3.80;;
13872;SDS011;7006;51.494;11.964;2023-07-02T02:30:52;5.20;;;4.70;;
13872;SDS011;7006;51.494;11.964;2023-07-02T02:33:20;5.40;;;4.20;;
13872;SDS011;7006;51.494;11.964;2023-07-02T02:35:48;5.87;;;4.30;;
13872;SDS011;7006;51.494;11.964;2023-07-02T02:38:17;5.00;;;4.50;;
13872;SDS011;7006;51.494;11.964;2023-07-02T02:40:45;5.53;;;4.80;;
13872;SDS011;7006;51.494;11.964;2023-07-02T02:43:13;7.93;;;5.27;;
13872;SDS011;7006;51.494;11.964;2023-07-02T02:45:42;5.83;;;4.90;;
13872;SDS011;7006;51.494;11.964;2023-07-02T02:48:12;6.10;;;4.70;;
13872;SDS011;7006;51.494;11.964;2023-07-02T02:50:40;7.10;;;6.00;;
13872;SDS011;7006;51.494;11.964;2023-07-02T02:53:09;6.63;;;5.17;;
13872;SDS011;7006;51.494;11.964;2023-07-02T02:55:37;5.53;;;5.03;;
13872;SDS011;7006;51.494;11.964;2023-07-02T02:58:05;6.83;;;5.97;;
13872;SDS011;7006;51.494;11.964;2023-07-02T03:00:33;7.33;;;6.13;;
13872;SDS011;7006;51.494;11.964;2023-07-02T03:03:01;12.40;;;6.00;;
13872;SDS011;7006;51.494;11.964;2023-07-02T03:05:32;7.57;;;5.87;;
13872;SDS011;7006;51.494;11.964;2023-07-02T03:08:00;9.83;;;6.77;;
13872;SDS011;7006;51.494;11.964;2023-07-02T03:10:28;7.90;;;5.73;;
13872;SDS011;7006;51.494;11.964;2023-07-02T03:12:56;7.53;;;5.87;;
13872;SDS011;7006;51.494;11.964;2023-07-02T03:15:24;5.90;;;5.30;;
13872;SDS011;7006;51.494;11.964;2023-07-02T03:17:52;6.50;;;5.90;;
13872;SDS011;7006;51.494;11.964;2023-07-02T03:20:20;7.77;;;5.17;;
13872;SDS011;7006;51.494;11.964;2023-07-02T03:22:51;6.10;;;5.50;;
13872;SDS011;7006;51.494;11.964;2023-07-02T03:25:19;5.90;;;5.27;;
13872;SDS011;7006;51.494;11.964;2023-07-02T03:27:47;7.60;;;5.67;;
13872;SDS011;7006;51.494;11.964;2023-07-02T03:30:15;8.03;;;6.10;;
13872;SDS011;7006;51.494;11.964;2023-07-02T03:32:43;7.30;;;5.70;;
13872;SDS011;7006;51.494;11.964;2023-07-02T03:35:11;7.20;;;5.53;;
13872;SDS011;7006;51.494;11.964;2023-07-02T03:37:39;8.53;;;6.03;;
13872;SDS011;7006;51.494;11.964;2023-07-02T03:40:11;7.50;;;5.47;;
13872;SDS011;7006;51.494;11.964;2023-07-02T03:42:39;6.10;;;5.50;;
13872;SDS011;7006;51.494;11.964;2023-07-02T03:45:08;6.40;;;5.80;;
13872;SDS011;7006;51.494;11.964;2023-07-02T03:47:36;6.43;;;5.73;;
13872;SDS011;7006;51.494;11.964;2023-07-02T03:50:04;6.13;;;5.53;;
13872;SDS011;7006;51.494;11.964;2023-07-02T03:52:32;6.83;;;5.70;;
13872;SDS011;7006;51.494;11.964;2023-07-02T03:55:00;10.90;;;5.83;;
13872;SDS011;7006;51.494;11.964;2023-07-02T03:57:31;7.67;;;5.03;;
13872;SDS011;7006;51.494;11.964;2023-07-02T03:59:59;6.10;;;5.00;;
13872;SDS011;7006;51.494;11.964;2023-07-02T04:02:27;8.67;;;6.60;;
13872;SDS011;7006;51.494;11.964;2023-07-02T04:04:55;10.23;;;6.50;;
13872;SDS011;7006;51.494;11.964;2023-07-02T04:07:23;10.67;;;5.70;;
13872;SDS011;7006;51.494;11.964;2023-07-02T04:09:51;6.83;;;5.80;;
13872;SDS011;7006;51.494;11.964;2023-07-02T04:12:19;13.00;;;6.23;;
13872;SDS011;7006;51.494;11.964;2023-07-02T04:14:50;8.63;;;5.90;;
13872;SDS011;7006;51.494;11.964;2023-07-02T04:17:18;6.70;;;6.07;;
13872;SDS011;7006;51.494;11.964;2023-07-02T04:19:46;6.90;;;5.67;;
13872;SDS011;7006;51.494;11.964;2023-07-02T04:22:14;7.33;;;6.17;;
13872;SDS011;7006;51.494;11.964;2023-07-02T04:24:43;7.40;;;6.30;;
13872;SDS011;7006;51.494;11.964;2023-07-02T04:27:14;6.60;;;6.00;;
13872;SDS011;7006;51.494;11.964;2023-07-02T04:29:42;9.97;;;5.70;;
13872;SDS011;7006;51.494;11.964;2023-07-02T04:32:13;8.50;;;7.60;;
13872;SDS011;7006;51.494;11.964;2023-07-02T04:34:41;8.68;;;6.82;;
13872;SDS011;7006;51.494;11.964;2023-07-02T04:37:09;8.37;;;7.20;;
13872;SDS011;7006;51.494;11.964;2023-07-02T04:39:37;8.10;;;6.50;;
13872;SDS011;7006;51.494;11.964;2023-07-02T04:42:06;9.83;;;6.83;;
13872;SDS011;7006;51.494;11.964;2023-07-02T04:44:35;7.63;;;6.60;;
13872;SDS011;7006;51.494;11.964;2023-07-02T04:47:03;8.53;;;6.60;;
13872;SDS011;7006;51.494;11.964;2023-07-02T04:49:33;7.00;;;6.30;;
13872;SDS011;7006;51.494;11.964;2023-07-02T04:52:02;7.80;;;7.00;;
13872;SDS011;7006;51.494;11.964;2023-07-02T04:54:30;7.47;;;6.77;;
13872;SDS011;7006;51.494;11.964;2023-07-02T04:56:58;7.73;;;7.03;;
13872;SDS011;7006;51.494;11.964;2023-07-02T04:59:26;8.70;;;7.80;;
13872;SDS011;7006;51.494;11.964;2023-07-02T05:01:54;8.90;;;8.00;;
13872;SDS011;7006;51.494;11.964;2023-07-02T05:04:22;8.27;;;7.47;;
13872;SDS011;7006;51.494;11.964;2023-07-02T05:06:53;8.60;;;7.70;;
13872;SDS011;7006;51.494;11.964;2023-07-02T05:09:21;8.13;;;7.30;;
13872;SDS011;7006;51.494;11.964;2023-07-02T05:11:49;9.07;;;8.10;;
13872;SDS011;7006;51.494;11.964;2023-07-02T05:14:17;9.70;;;8.50;;
13872;SDS011;7006;51.494;11.964;2023-07-02T05:16:45;9.50;;;8.60;;
13872;SDS011;7006;51.494;11.964;2023-07-02T05:19:13;11.07;;;9.00;;
13872;SDS011;7006;51.494;11.964;2023-07-02T05:21:41;9.20;;;8.30;;
13872;SDS011;7006;51.494;11.964;2023-07-02T05:24:12;10.63;;;9.47;;
13872;SDS011;7006;51.494;11.964;2023-07-02T05:26:40;10.60;;;9.60;;
13872;SDS011;7006;51.494;11.964;2023-07-02T05:29:08;12.50;;;10.03;;
13872;SDS011;7006;51.494;11.964;2023-07-02T05:31:36;12.80;;;10.43;;
13872;SDS011;7006;51.494;11.964;2023-07-02T05:34:04;11.40;;;10.20;;
13872;SDS011;7006;51.494;11.964;2023-07-02T05:36:32;11.53;;;10.43;;
13872;SDS011;7006;51.494;11.964;2023-07-02T05:39:00;13.07;;;11.67;;
13872;SDS011;7006;51.494;11.964;2023-07-02T05:41:31;10.70;;;9.60;;
13872;SDS011;7006;51.494;11.964;2023-07-02T05:43:59;11.17;;;10.07;;
13872;SDS011;7006;51.494;11.964;2023-07-02T05:46:27;10.70;;;9.70;;
13872;SDS011;7006;51.494;11.964;2023-07-02T05:48:55;11.20;;;9.93;;
13872;SDS011;7006;51.494;11.964;2023-07-02T05:51:25;10.60;;;9.60;;
13872;SDS011;7006;51.494;11.964;2023-07-02T05:53:53;10.83;;;9.80;;
13872;SDS011;7006;51.494;11.964;2023-07-02T05:56:21;10.43;;;9.33;;
13872;SDS011;7006;51.494;11.964;2023-07-02T05:58:51;10.90;;;9.60;;
13872;SDS011;7006;51.494;11.964;2023-07-02T06:01:19;10.57;;;9.57;;
13872;SDS011;7006;51.494;11.964;2023-07-02T06:03:49;9.93;;;8.93;;
13872;SDS011;7006;51.494;11.964;2023-07-02T06:06:17;10.33;;;8.70;;
13872;SDS011;7006;51.494;11.964;2023-07-02T06:08:45;8.90;;;7.77;;
13872;SDS011;7006;51.494;11.964;2023-07-02T06:11:13;9.60;;;8.53;;
13872;SDS011;7006;51.494;11.964;2023-07-02T06:13:41;8.50;;;7.80;;
13872;SDS011;7006;51.494;11.964;2023-07-02T06:16:12;8.20;;;7.47;;
13872;SDS011;7006;51.494;11.964;2023-07-02T06:18:40;8.33;;;7.53;;
13872;SDS011;7006;51.494;11.964;2023-07-02T06:21:08;7.90;;;7.20;;
13872;SDS011;7006;51.494;11.964;2023-07-02T06:23:40;7.37;;;6.67;;
13872;SDS011;7006;51.494;11.964;2023-07-02T06:26:08;7.00;;;6.30;;
13872;SDS011;7006;51.494;11.964;2023-07-02T06:28:36;6.23;;;5.67;;
13872;SDS011;7006;51.494;11.964;2023-07-02T06:31:04;6.57;;;5.90;;
13872;SDS011;7006;51.494;11.964;2023-07-02T06:33:35;7.80;;;6.60;;
13872;SDS011;7006;51.494;11.964;2023-07-02T06:36:05;5.87;;;5.27;;
13872;SDS011;7006;51.494;11.964;2023-07-02T06:38:33;5.63;;;5.13;;
13872;SDS011;7006;51.494;11.964;2023-07-02T06:41:01;6.17;;;5.57;;
13872;SDS011;7006;51.494;11.964;2023-07-02T06:43:29;6.37;;;5.60;;
13872;SDS011;7006;51.494;11.964;2023-07-02T06:45:57;5.73;;;5.17;;
13872;SDS011;7006;51.494;11.964;2023-07-02T06:48:25;5.00;;;4.60;;
13872;SDS011;7006;51.494;11.964;2023-07-02T06:50:56;5.60;;;5.07;;
13872;SDS011;7006;51.494;11.964;2023-07-02T06:53:24;5.60;;;5.00;;
13872;SDS011;7006;51.494;11.964;2023-07-02T06:55:52;5.67;;;4.33;;
13872;SDS011;7006;51.494;11.964;2023-07-02T06:58:20;6.43;;;4.80;;
13872;SDS011;7006;51.494;11.964;2023-07-02T07:00:48;4.87;;;4.30;;
13872;SDS011;7006;51.494;11.964;2023-07-02T07:03:17;6.60;;;4.67;;
13872;SDS011;7006;51.494;11.964;2023-07-02T07:05:45;7.03;;;4.97;;
13872;SDS011;7006;51.494;11.964;2023-07-02T07:08:15;4.53;;;4.07;;
13872;SDS011;7006;51.494;11.964;2023-07-02T07:10:43;6.37;;;4.37;;
13872;SDS011;7006;51.494;11.964;2023-07-02T07:13:12;5.27;;;4.77;;
13872;SDS011;7006;51.494;11.964;2023-07-02T07:15:40;6.07;;;4.53;;
13872;SDS011;7006;51.494;11.964;2023-07-02T07:18:09;6.00;;;4.57;;
13872;SDS011;7006;51.494;11.964;2023-07-02T07:20:38;7.00;;;4.83;;
13872;SDS011;7006;51.494;11.964;2023-07-02T07:23:06;8.53;;;5.07;;
13872;SDS011;7006;51.494;11.964;2023-07-02T07:25:36;5.17;;;4.50;;
13872;SDS011;7006;51.494;11.964;2023-07-02T07:28:05;5.17;;;4.40;;
13872;SDS011;7006;51.494;11.964;2023-07-02T07:30:37;4.63;;;4.23;;
13872;SDS011;7006;51.494;11.964;2023-07-02T07:33:05;5.00;;;4.50;;
13872;SDS011;7006;51.494;11.964;2023-07-02T07:35:33;4.80;;;4.20;;
13872;SDS011;7006;51.494;11.964;2023-07-02T07:38:02;4.70;;;3.97;;
13872;SDS011;7006;51.494;11.964;2023-07-02T07:40:30;4.53;;;4.10;;
13872;SDS011;7006;51.494;11.964;2023-07-02T07:43:03;6.03;;;4.43;;
13872;SDS011;7006;51.494;11.964;2023-07-02T07:45:32;6.33;;;4.10;;
13872;SDS011;7006;51.494;11.964;2023-07-02T07:48:00;5.43;;;4.40;;
13872;SDS011;7006;51.494;11.964;2023-07-02T07:50:28;3.70;;;3.37;;
13872;SDS011;7006;51.494;11.964;2023-07-02T07:52:56;4.43;;;4.03;;
13872;SDS011;7006;51.494;11.964;2023-07-02T07:55:25;5.00;;;3.80;;
13872;SDS011;7006;51.494;11.964;2023-07-02T07:57:53;6.93;;;3.90;;
13872;SDS011;7006;51.494;11.964;2023-07-02T08:00:23;4.40;;;4.00;;
13872;SDS011;7006;51.494;11.964;2023-07-02T08:02:52;5.60;;;3.93;;
13872;SDS011;7006;51.494;11.964;2023-07-02T08:05:20;5.63;;;4.10;;
13872;SDS011;7006;51.494;11.964;2023-07-02T08:07:49;4.53;;;4.13;;
13872;SDS011;7006;51.494;11.964;2023-07-02T08:10:18;6.77;;;4.20;;
13872;SDS011;7006;51.494;11.964;2023-07-02T08:12:46;5.00;;;3.90;;
13872;SDS011;7006;51.494;11.964;2023-07-02T08:15:17;5.07;;;4.40;;
13872;SDS011;7006;51.494;11.964;2023-07-02T08:17:48;5.20;;;4.13;;
13872;SDS011;7006;51.494;11.964;2023-07-02T08:20:19;5.07;;;3.97;;
13872;SDS011;7006;51.494;11.964;2023-07-02T08:22:48;6.77;;;4.67;;
13872;SDS011;7006;51.494;11.964;2023-07-02T08:25:19;4.53;;;4.13;;
13872;SDS011;7006;51.494;11.964;2023-07-02T08:27:47;5.03;;;4.50;;
13872;SDS011;7006;51.494;11.964;2023-07-02T08:30:16;5.10;;;4.60;;
13872;SDS011;7006;51.494;11.964;2023-07-02T08:32:48;6.10;;;4.80;;
13872;SDS011;7006;51.494;11.964;2023-07-02T08:35:16;6.50;;;5.17;;
13872;SDS011;7006;51.494;11.964;2023-07-02T08:37:44;6.23;;;5.63;;
13872;SDS011;7006;51.494;11.964;2023-07-02T08:40:15;9.00;;;6.03;;
13872;SDS011;7006;51.494;11.964;2023-07-02T08:42:44;6.83;;;4.80;;
13872;SDS011;7006;51.494;11.964;2023-07-02T08:45:13;10.17;;;7.03;;
13872;SDS011;7006;51.494;11.964;2023-07-02T08:47:44;8.00;;;6.17;;
13872;SDS011;7006;51.494;11.964;2023-07-02T08:50:15;8.70;;;6.00;;
13872;SDS011;7006;51.494;11.964;2023-07-02T08:52:43;9.73;;;7.90;;
13872;SDS011;7006;51.494;11.964;2023-07-02T08:55:11;9.27;;;6.67;;
13872;SDS011;7006;51.494;11.964;2023-07-02T08:57:39;9.50;;;7.33;;
13872;SDS011;7006;51.494;11.964;2023-07-02T09:00:08;9.10;;;7.10;;
13872;SDS011;7006;51.494;11.964;2023-07-02T09:02:36;9.00;;;6.90;;
13872;SDS011;7006;51.494;11.964;2023-07-02T09:05:05;7.80;;;6.83;;
13872;SDS011;7006;51.494;11.964;2023-07-02T09:07:45;11.23;;;7.50;;
13872;SDS011;7006;51.494;11.964;2023-07-02T09:10:25;12.53;;;7.27;;
13872;SDS011;7006;51.494;11.964;2023-07-02T09:13:02;8.77;;;7.87;;
13872;SDS011;7006;51.494;11.964;2023-07-02T09:15:34;9.73;;;7.37;;
13872;SDS011;7006;51.494;11.964;2023-07-02T09:18:03;9.30;;;7.40;;
13872;SDS011;7006;51.494;11.964;2023-07-02T09:20:41;8.77;;;7.20;;
13872;SDS011;7006;51.494;11.964;2023-07-02T09:23:12;9.17;;;6.93;;
13872;SDS011;7006;51.494;11.964;2023-07-02T09:25:40;11.97;;;8.13;;
13872;SDS011;7006;51.494;11.964;2023-07-02T09:28:15;11.00;;;7.07;;
13872;SDS011;7006;51.494;11.964;2023-07-02T09:30:50;10.00;;;7.63;;
13872;SDS011;7006;51.494;11.964;2023-07-02T09:33:18;13.37;;;8.60;;
13872;SDS011;7006;51.494;11.964;2023-07-02T09:35:47;8.20;;;7.40;;
13872;SDS011;7006;51.494;11.964;2023-07-02T09:38:17;8.70;;;7.80;;
13872;SDS011;7006;51.494;11.964;2023-07-02T09:40:47;8.97;;;6.87;;
13872;SDS011;7006;51.494;11.964;2023-07-02T09:43:16;7.50;;;6.23;;
13872;SDS011;7006;51.494;11.964;2023-07-02T09:45:45;8.53;;;6.60;;
13872;SDS011;7006;51.494;11.964;2023-07-02T09:48:14;9.03;;;7.20;;
13872;SDS011;7006;51.494;11.964;2023-07-02T09:50:43;8.40;;;7.00;;
13872;SDS011;7006;51.494;11.964;2023-07-02T09:53:11;9.93;;;7.10;;
13872;SDS011;7006;51.494;11.964;2023-07-02T09:55:42;8.70;;;7.50;;
13872;SDS011;7006;51.494;11.964;2023-07-02T09:58:11;10.57;;;6.93;;
13872;SDS011;7006;51.494;11.964;2023-07-02T10:00:39;8.00;;;6.53;;
13872;SDS011;7006;51.494;11.964;2023-07-02T10:03:08;8.83;;;7.13;;
13872;SDS011;7006;51.494;11.964;2023-07-02T10:05:36;9.10;;;6.90;;
13872;SDS011;7006;51.494;11.964;2023-07-02T10:08:11;8.37;;;6.77;;
13872;SDS011;7006;51.494;11.964;2023-07-02T10:10:44;9.60;;;7.23;;
13872;SDS011;7006;51.494;11.964;2023-07-02T10:13:13;7.63;;;6.47;;
13872;SDS011;7006;51.494;11.964;2023-07-02T10:15:41;8.17;;;7.33;;
13872;SDS011;7006;51.494;11.964;2023-07-02T10:18:09;8.00;;;7.07;;
13872;SDS011;7006;51.494;11.964;2023-07-02T10:20:38;8.43;;;6.90;;
13872;SDS011;7006;51.494;11.964;2023-07-02T10:23:07;9.27;;;6.53;;
13872;SDS011;7006;51.494;11.964;2023-07-02T10:25:36;8.03;;;7.23;;
13872;SDS011;7006;51.494;11.964;2023-07-02T10:28:16;11.47;;;7.60;;
13872;SDS011;7006;51.494;11.964;2023-07-02T10:30:44;9.73;;;8.17;;
13872;SDS011;7006;51.494;11.964;2023-07-02T10:33:13;11.67;;;8.30;;
13872;SDS011;7006;51.494;11.964;2023-07-02T10:35:41;10.30;;;8.20;;
13872;SDS011;7006;51.494;11.964;2023-07-02T10:38:15;13.53;;;8.93;;
13872;SDS011;7006;51.494;11.964;2023-07-02T10:40:43;11.60;;;8.27;;
13872;SDS011;7006;51.494;11.964;2023-07-02T10:43:12;11.17;;;8.43;;
13872;SDS011;7006;51.494;11.964;2023-07-02T10:45:42;14.63;;;8.80;;
13872;SDS011;7006;51.494;11.964;2023-07-02T10:48:10;14.13;;;9.23;;
13872;SDS011;7006;51.494;11.964;2023-07-02T10:50:38;16.40;;;8.80;;
13872;SDS011;7006;51.494;11.964;2023-07-02T10:53:13;13.70;;;8.80;;
13872;SDS011;7006;51.494;11.964;2023-07-02T10:55:42;10.90;;;8.60;;
13872;SDS011;7006;51.494;11.964;2023-07-02T10:58:10;11.23;;;9.10;;
13872;SDS011;7006;51.494;11.964;2023-07-02T11:00:46;12.40;;;9.47;;
13872;SDS011;7006;51.494;11.964;2023-07-02T11:03:17;12.67;;;8.60;;
13872;SDS011;7006;51.494;11.964;2023-07-02T11:05:46;12.17;;;9.00;;
13872;SDS011;7006;51.494;11.964;2023-07-02T11:08:15;14.37;;;9.67;;
13872;SDS011;7006;51.494;11.964;2023-07-02T11:10:43;18.43;;;9.40;;
13872;SDS011;7006;51.494;11.964;2023-07-02T11:13:11;10.30;;;8.40;;
13872;SDS011;7006;51.494;11.964;2023-07-02T11:15:39;12.10;;;8.17;;
13872;SDS011;7006;51.494;11.964;2023-07-02T11:18:13;10.93;;;8.23;;
13872;SDS011;7006;51.494;11.964;2023-07-02T11:20:43;11.37;;;8.70;;
13872;SDS011;7006;51.494;11.964;2023-07-02T11:23:17;13.30;;;8.70;;
13872;SDS011;7006;51.494;11.964;2023-07-02T11:25:56;11.50;;;9.10;;
13872;SDS011;7006;51.494;11.964;2023-07-02T11:28:25;10.57;;;7.50;;
13872;SDS011;7006;51.494;11.964;2023-07-02T11:30:53;13.43;;;8.20;;
13872;SDS011;7006;51.494;11.964;2023-07-02T11:33:34;9.13;;;7.20;;
13872;SDS011;7006;51.494;11.964;2023-07-02T11:36:02;11.60;;;8.00;;
13872;SDS011;7006;51.494;11.964;2023-07-02T11:38:30;11.07;;;8.10;;
13872;SDS011;7006;51.494;11.964;2023-07-02T11:40:58;12.00;;;8.20;;
13872;SDS011;7006;51.494;11.964;2023-07-02T11:43:26;16.07;;;9.87;;
13872;SDS011;7006;51.494;11.964;2023-07-02T11:45:55;12.63;;;8.27;;
13872;SDS011;7006;51.494;11.964;2023-07-02T11:48:23;10.77;;;8.00;;
13872;SDS011;7006;51.494;11.964;2023-07-02T11:50:53;11.83;;;8.10;;
13872;SDS011;7006;51.494;11.964;2023-07-02T11:53:21;9.73;;;7.47;;
13872;SDS011;7006;51.494;11.964;2023-07-02T11:55:50;12.80;;;8.03;;
13872;SDS011;7006;51.494;11.964;2023-07-02T11:58:18;11.27;;;8.83;;
13872;SDS011;7006;51.494;11.964;2023-07-02T12:00:46;14.00;;;8.70;;
13872;SDS011;7006;51.494;11.964;2023-07-02T12:03:14;11.10;;;8.07;;
13872;SDS011;7006;51.494;11.964;2023-07-02T12:05:42;10.20;;;7.70;;
13872;SDS011;7006;51.494;11.964;2023-07-02T12:08:13;12.27;;;7.70;;
13872;SDS011;7006;51.494;11.964;2023-07-02T12:10:41;9.87;;;7.33;;
13872;SDS011;7006;51.494;11.964;2023-07-02T12:13:09;12.10;;;7.67;;
13872;SDS011;7006;51.494;11.964;2023-07-02T12:15:37;12.00;;;8.33;;
13872;SDS011;7006;51.494;11.964;2023-07-02T12:18:06;12.80;;;8.50;;
13872;SDS011;7006;51.494;11.964;2023-07-02T12:20:34;12.43;;;8.47;;
13872;SDS011;7006;51.494;11.964;2023-07-02T12:23:03;13.70;;;8.40;;
13872;SDS011;7006;51.494;11.964;2023-07-02T12:25:34;13.10;;;8.80;;
13872;SDS011;7006;51.494;11.964;2023-07-02T12:28:02;12.27;;;8.53;;
13872;SDS011;7006;51.494;11.964;2023-07-02T12:30:30;15.97;;;9.20;;
13872;SDS011;7006;51.494;11.964;2023-07-02T12:32:58;14.33;;;9.10;;
13872;SDS011;7006;51.494;11.964;2023-07-02T12:35:26;12.00;;;8.87;;
13872;SDS011;7006;51.494;11.964;2023-07-02T12:37:54;12.93;;;9.17;;
13872;SDS011;7006;51.494;11.964;2023-07-02T12:40:22;11.47;;;8.43;;
13872;SDS011;7006;51.494;11.964;2023-07-02T12:42:53;19.17;;;10.70;;
13872;SDS011;7006;51.494;11.964;2023-07-02T12:45:21;15.27;;;9.53;;
13872;SDS011;7006;51.494;11.964;2023-07-02T12:47:49;13.43;;;10.10;;
13872;SDS011;7006;51.494;11.964;2023-07-02T12:50:17;10.90;;;8.23;;
13872;SDS011;7006;51.494;11.964;2023-07-02T12:52:45;12.63;;;8.70;;
13872;SDS011;7006;51.494;11.964;2023-07-02T12:55:13;15.13;;;9.00;;
13872;SDS011;7006;51.494;11.964;2023-07-02T12:57:41;12.07;;;8.07;;
13872;SDS011;7006;51.494;11.964;2023-07-02T13:00:12;14.73;;;8.70;;
13872;SDS011;7006;51.494;11.964;2023-07-02T13:02:41;12.90;;;9.37;;
13872;SDS011;7006;51.494;11.964;2023-07-02T13:05:09;15.80;;;9.83;;
13872;SDS011;7006;51.494;11.964;2023-07-02T13:07:37;16.70;;;10.00;;
13872;SDS011;7006;51.494;11.964;2023-07-02T13:10:06;14.67;;;9.33;;
13872;SDS011;7006;51.494;11.964;2023-07-02T13:12:34;12.63;;;8.43;;
13872;SDS011;7006;51.494;11.964;2023-07-02T13:15:02;12.50;;;10.00;;
13872;SDS011;7006;51.494;11.964;2023-07-02T13:17:33;13.57;;;9.83;;
13872;SDS011;7006;51.494;11.964;2023-07-02T13:20:01;14.70;;;10.40;;
13872;SDS011;7006;51.494;11.964;2023-07-02T13:22:29;16.60;;;10.93;;
13872;SDS011;7006;51.494;11.964;2023-07-02T13:24:57;17.60;;;10.27;;
13872;SDS011;7006;51.494;11.964;2023-07-02T13:27:25;13.23;;;9.60;;
13872;SDS011;7006;51.494;11.964;2023-07-02T13:29:53;13.97;;;10.10;;
13872;SDS011;7006;51.494;11.964;2023-07-02T13:32:21;12.03;;;9.70;;
13872;SDS011;7006;51.494;11.964;2023-07-02T13:34:52;14.90;;;10.00;;
13872;SDS011;7006;51.494;11.964;2023-07-02T13:37:20;17.20;;;9.77;;
13872;SDS011;7006;51.494;11.964;2023-07-02T13:39:48;15.60;;;9.70;;
13872;SDS011;7006;51.494;11.964;2023-07-02T13:42:16;13.53;;;9.50;;
13872;SDS011;7006;51.494;11.964;2023-07-02T13:44:44;14.17;;;8.27;;
13872;SDS011;7006;51.494;11.964;2023-07-02T13:47:13;13.07;;;9.73;;
13872;SDS011;7006;51.494;11.964;2023-07-02T13:49:41;12.87;;;8.57;;
13872;SDS011;7006;51.494;11.964;2023-07-02T13:52:11;12.07;;;9.40;;
13872;SDS011;7006;51.494;11.964;2023-07-02T13:54:39;14.77;;;10.67;;
13872;SDS011;7006;51.494;11.964;2023-07-02T13:57:08;13.40;;;9.87;;
13872;SDS011;7006;51.494;11.964;2023-07-02T13:59:38;19.13;;;10.50;;
13872;SDS011;7006;51.494;11.964;2023-07-02T14:02:06;18.43;;;10.70;;
13872;SDS011;7006;51.494;11.964;2023-07-02T14:04:34;14.43;;;9.63;;
13872;SDS011;7006;51.494;11.964;2023-07-02T14:07:03;12.37;;;9.93;;
13872;SDS011;7006;51.494;11.964;2023-07-02T14:09:31;13.90;;;10.70;;
13872;SDS011;7006;51.494;11.964;2023-07-02T14:11:59;13.17;;;9.97;;
13872;SDS011;7006;51.494;11.964;2023-07-02T14:14:27;16.40;;;10.80;;
13872;SDS011;7006;51.494;11.964;2023-07-02T14:16:58;17.47;;;10.53;;
13872;SDS011;7006;51.494;11.964;2023-07-02T14:19:26;12.90;;;9.47;;
13872;SDS011;7006;51.494;11.964;2023-07-02T14:21:54;15.30;;;11.70;;
13872;SDS011;7006;51.494;11.964;2023-07-02T14:24:22;18.20;;;11.57;;
13872;SDS011;7006;51.494;11.964;2023-07-02T14:26:51;15.30;;;10.57;;
13872;SDS011;7006;51.494;11.964;2023-07-02T14:29:19;17.73;;;11.10;;
13872;SDS011;7006;51.494;11.964;2023-07-02T14:31:47;15.40;;;9.60;;
13872;SDS011;7006;51.494;11.964;2023-07-02T14:34:17;15.37;;;10.40;;
13872;SDS011;7006;51.494;11.964;2023-07-02T14:36:46;15.30;;;11.03;;
13872;SDS011;7006;51.494;11.964;2023-07-02T14:39:14;15.93;;;10.60;;
13872;SDS011;7006;51.494;11.964;2023-07-02T14:41:42;12.10;;;10.23;;
13872;SDS011;7006;51.494;11.964;2023-07-02T14:44:10;14.20;;;10.30;;
13872;SDS011;7006;51.494;11.964;2023-07-02T14:46:38;16.03;;;10.73;;
13872;SDS011;7006;51.494;11.964;2023-07-02T14:49:07;16.60;;;9.90;;
13872;SDS011;7006;51.494;11.964;2023-07-02T14:51:38;13.23;;;10.37;;